PWSweather.com
Personal Weather Stations
Station Observations
SHAHALMS1
Eftra, Falkenberg, HA

EftraFalkenberg, HA

Lat: 56.85, Lon: 12.65

Elevation: 140

Station Type:

http://hem.passagen.se/risarp101

High Low Average
Temperature 39.9°F4.4°C 34.2°F1.2°C 37.4°F3.0°C
Dew Point 37.8°F3.2°C 30.7°F-0.7°C 34.5°F1.4°C
Winds 9.5 mph 15.3 kmh Calm Calm 3.0 mph SSW4.8 kmh SSW
Wind Gusts 15.7 mph25.3 kmh -- 7.0 mph11.3 kmh
Humidity 93% 83% 89%
Pressure 29.59 in1002.0 mb 29.12 in986.1 mb -
Precipitation 0.00 in0.0 mm - -
Hour Temp Dew Point Humidity Winds Wind Gusts Pressure Precip Precip Rate Daily Precip Total
12:00 AM 37.4°F3.0°C 35.3°F1.8°C 92% Calm Calm -- 29.18 in988.1 mb 0.00 in0.0 mm 0.00 in0.0 mm 0.00 in0.0 mm
12:15 AM 37.4°F3.0°C 35.3°F1.8°C 92% Calm Calm -- 29.18 in988.1 mb 0.00 in0.0 mm 0.00 in0.0 mm 0.00 in0.0 mm
12:30 AM 37.4°F3.0°C 35.3°F1.8°C 92% Calm Calm -- 29.15 in987.1 mb 0.00 in0.0 mm 0.00 in0.0 mm 0.00 in0.0 mm
12:45 AM 37.6°F3.1°C 35.5°F1.9°C 92% Calm Calm -- 29.15 in987.1 mb 0.00 in0.0 mm 0.00 in0.0 mm 0.00 in0.0 mm
01:00 AM 37.6°F3.1°C 35.5°F1.9°C 92% Calm Calm -- 29.15 in987.1 mb 0.00 in0.0 mm 0.00 in0.0 mm 0.00 in0.0 mm
01:15 AM 37.6°F3.1°C 35.5°F1.9°C 92% Calm Calm -- 29.15 in987.1 mb 0.00 in0.0 mm 0.00 in0.0 mm 0.00 in0.0 mm
01:30 AM 37.8°F3.2°C 35.6°F2.0°C 92% 0.7 mph NW1.1 kmh NW 4.7 mph7.6 kmh 29.15 in987.1 mb 0.00 in0.0 mm 0.00 in0.0 mm 0.00 in0.0 mm
01:45 AM 37.8°F3.2°C 35.6°F2.0°C 92% 0.6 mph WNW1.0 kmh WNW 3.6 mph5.8 kmh 29.15 in987.1 mb 0.00 in0.0 mm 0.00 in0.0 mm 0.00 in0.0 mm
02:00 AM 37.8°F3.2°C 35.6°F2.0°C 92% Calm Calm -- 29.12 in986.1 mb 0.00 in0.0 mm 0.00 in0.0 mm 0.00 in0.0 mm
02:15 AM 37.8°F3.2°C 35.6°F2.0°C 92% Calm Calm -- 29.12 in986.1 mb 0.00 in0.0 mm 0.00 in0.0 mm 0.00 in0.0 mm
02:30 AM 37.4°F3.0°C 35.3°F1.8°C 92% Calm Calm -- 29.18 in988.1 mb 0.00 in0.0 mm 0.00 in0.0 mm 0.00 in0.0 mm
02:45 AM 37.4°F3.0°C 35.3°F1.8°C 92% Calm Calm -- 29.15 in987.1 mb 0.00 in0.0 mm 0.00 in0.0 mm 0.00 in0.0 mm
03:00 AM 37.6°F3.1°C 35.5°F1.9°C 92% 0.8 mph WNW1.3 kmh WNW 3.6 mph5.8 kmh 29.18 in988.1 mb 0.00 in0.0 mm 0.00 in0.0 mm 0.00 in0.0 mm
03:15 AM 37.6°F3.1°C 35.5°F1.9°C 92% 0.7 mph NW1.1 kmh NW 4.7 mph7.6 kmh 29.15 in987.1 mb 0.00 in0.0 mm 0.00 in0.0 mm 0.00 in0.0 mm
03:30 AM 37.4°F3.0°C 35.3°F1.8°C 92% Calm Calm -- 29.18 in988.1 mb 0.00 in0.0 mm 0.00 in0.0 mm 0.00 in0.0 mm
03:45 AM 37.2°F2.9°C 35.1°F1.7°C 92% Calm Calm -- 29.15 in987.1 mb 0.00 in0.0 mm 0.00 in0.0 mm 0.00 in0.0 mm
04:00 AM 37.4°F3.0°C 35.3°F1.8°C 92% 0.2 mph N0.3 kmh N 2.5 mph4.0 kmh 29.15 in987.1 mb 0.00 in0.0 mm 0.00 in0.0 mm 0.00 in0.0 mm
04:15 AM 37.6°F3.1°C 35.5°F1.9°C 92% 0.7 mph NW1.1 kmh NW 3.6 mph5.8 kmh 29.18 in988.1 mb 0.00 in0.0 mm 0.00 in0.0 mm 0.00 in0.0 mm
04:30 AM 37.4°F3.0°C 35.3°F1.8°C 92% Calm Calm -- 29.12 in986.1 mb 0.00 in0.0 mm 0.00 in0.0 mm 0.00 in0.0 mm
04:45 AM 37.4°F3.0°C 35.3°F1.8°C 92% 0.2 mph NNW0.3 kmh NNW 2.1 mph3.4 kmh 29.15 in987.1 mb 0.00 in0.0 mm 0.00 in0.0 mm 0.00 in0.0 mm
05:00 AM 37.4°F3.0°C 35.3°F1.8°C 92% 0.1 mph N0.2 kmh N 2.1 mph3.4 kmh 29.15 in987.1 mb 0.00 in0.0 mm 0.00 in0.0 mm 0.00 in0.0 mm
05:15 AM 37.4°F3.0°C 35.3°F1.8°C 92% 0.2 mph N0.3 kmh N 1.4 mph2.3 kmh 29.12 in986.1 mb 0.00 in0.0 mm 0.00 in0.0 mm 0.00 in0.0 mm
05:31 AM 37.4°F3.0°C 35.3°F1.8°C 92% 1.6 mph N2.6 kmh N 5.4 mph8.7 kmh 29.15 in987.1 mb 0.00 in0.0 mm 0.00 in0.0 mm 0.00 in0.0 mm
05:45 AM 37.6°F3.1°C 35.5°F1.9°C 92% 0.5 mph NW0.8 kmh NW 4.7 mph7.6 kmh 29.12 in986.1 mb 0.00 in0.0 mm 0.00 in0.0 mm 0.00 in0.0 mm
06:00 AM 37.4°F3.0°C 35.3°F1.8°C 92% Calm Calm -- 29.15 in987.1 mb 0.00 in0.0 mm 0.00 in0.0 mm 0.00 in0.0 mm
06:15 AM 37.2°F2.9°C 35.1°F1.7°C 92% Calm Calm -- 29.15 in987.1 mb 0.00 in0.0 mm 0.00 in0.0 mm 0.00 in0.0 mm
06:30 AM 37.0°F2.8°C 34.9°F1.6°C 92% Calm Calm -- 29.12 in986.1 mb 0.00 in0.0 mm 0.00 in0.0 mm 0.00 in0.0 mm
06:45 AM 37.0°F2.8°C 34.9°F1.6°C 92% 0.1 mph W0.2 kmh W 1.8 mph2.9 kmh 29.15 in987.1 mb 0.00 in0.0 mm 0.00 in0.0 mm 0.00 in0.0 mm
07:00 AM 37.0°F2.8°C 34.9°F1.6°C 92% 0.4 mph NW0.6 kmh NW 3.6 mph5.8 kmh 29.15 in987.1 mb 0.00 in0.0 mm 0.00 in0.0 mm 0.00 in0.0 mm
07:15 AM 37.2°F2.9°C 35.1°F1.7°C 92% Calm Calm -- 29.18 in988.1 mb 0.00 in0.0 mm 0.00 in0.0 mm 0.00 in0.0 mm
07:30 AM 37.4°F3.0°C 35.3°F1.8°C 92% 0.3 mph NW0.5 kmh NW 3.9 mph6.3 kmh 29.18 in988.1 mb 0.00 in0.0 mm 0.00 in0.0 mm 0.00 in0.0 mm
07:45 AM 37.8°F3.2°C 35.6°F2.0°C 92% 0.1 mph NNW0.2 kmh NNW 1.8 mph2.9 kmh 29.18 in988.1 mb 0.00 in0.0 mm 0.00 in0.0 mm 0.00 in0.0 mm
08:00 AM 37.8°F3.2°C 35.6°F2.0°C 92% Calm Calm -- 29.21 in989.2 mb 0.00 in0.0 mm 0.00 in0.0 mm 0.00 in0.0 mm
08:15 AM 37.9°F3.3°C 35.8°F2.1°C 92% 0.4 mph NW0.6 kmh NW 3.6 mph5.8 kmh 29.21 in989.2 mb 0.00 in0.0 mm 0.00 in0.0 mm 0.00 in0.0 mm
08:30 AM 38.3°F3.5°C 36.2°F2.3°C 92% 0.1 mph NW0.2 kmh NW 1.4 mph2.3 kmh 29.21 in989.2 mb 0.00 in0.0 mm 0.00 in0.0 mm 0.00 in0.0 mm
08:45 AM 38.5°F3.6°C 36.4°F2.4°C 92% 0.5 mph NNW0.8 kmh NNW 5.0 mph8.0 kmh 29.21 in989.2 mb 0.00 in0.0 mm 0.00 in0.0 mm 0.00 in0.0 mm
09:00 AM 38.8°F3.8°C 37.0°F2.8°C 93% 0.8 mph N1.3 kmh N 4.3 mph6.9 kmh 29.21 in989.2 mb 0.00 in0.0 mm 0.00 in0.0 mm 0.00 in0.0 mm
09:15 AM 39.0°F3.9°C 37.2°F2.9°C 93% 2.3 mph N3.7 kmh N 6.4 mph10.3 kmh 29.18 in988.1 mb 0.00 in0.0 mm 0.00 in0.0 mm 0.00 in0.0 mm
09:30 AM 39.2°F4.0°C 37.1°F2.8°C 92% 3.0 mph NNW4.8 kmh NNW 5.7 mph9.2 kmh 29.21 in989.2 mb 0.00 in0.0 mm 0.00 in0.0 mm 0.00 in0.0 mm
09:45 AM 39.4°F4.1°C 37.2°F2.9°C 92% 2.8 mph N4.5 kmh N 6.4 mph10.3 kmh 29.21 in989.2 mb 0.00 in0.0 mm 0.00 in0.0 mm 0.00 in0.0 mm
10:00 AM 39.6°F4.2°C 37.4°F3.0°C 92% 3.4 mph N5.5 kmh N 7.5 mph12.1 kmh 29.21 in989.2 mb 0.00 in0.0 mm 0.00 in0.0 mm 0.00 in0.0 mm
10:15 AM 39.7°F4.3°C 37.6°F3.1°C 92% 1.9 mph N3.1 kmh N 6.1 mph9.8 kmh 29.21 in989.2 mb 0.00 in0.0 mm 0.00 in0.0 mm 0.00 in0.0 mm
10:30 AM 39.9°F4.4°C 37.8°F3.2°C 92% 2.6 mph N4.2 kmh N 6.8 mph10.9 kmh 29.24 in990.2 mb 0.00 in0.0 mm 0.00 in0.0 mm 0.00 in0.0 mm
10:45 AM 39.7°F4.3°C 37.6°F3.1°C 92% 4.5 mph N7.2 kmh N 7.5 mph12.1 kmh 29.24 in990.2 mb 0.00 in0.0 mm 0.00 in0.0 mm 0.00 in0.0 mm
11:00 AM 39.9°F4.4°C 37.8°F3.2°C 92% 3.5 mph N5.6 kmh N 7.9 mph12.7 kmh 29.24 in990.2 mb 0.00 in0.0 mm 0.00 in0.0 mm 0.00 in0.0 mm
11:15 AM 39.9°F4.4°C 37.8°F3.2°C 92% 5.1 mph N8.2 kmh N 9.7 mph15.6 kmh 29.24 in990.2 mb 0.00 in0.0 mm 0.00 in0.0 mm 0.00 in0.0 mm
11:30 AM 39.7°F4.3°C 37.3°F2.9°C 91% 4.7 mph N7.6 kmh N 8.9 mph14.3 kmh 29.24 in990.2 mb 0.00 in0.0 mm 0.00 in0.0 mm 0.00 in0.0 mm
11:45 AM 39.9°F4.4°C 37.2°F2.9°C 90% 3.5 mph N5.6 kmh N 8.6 mph13.8 kmh 29.24 in990.2 mb 0.00 in0.0 mm 0.00 in0.0 mm 0.00 in0.0 mm
12:00 PM 39.6°F4.2°C 36.6°F2.6°C 89% 4.0 mph N6.4 kmh N 10.0 mph16.1 kmh 29.27 in991.2 mb 0.00 in0.0 mm 0.00 in0.0 mm 0.00 in0.0 mm
12:15 PM 39.2°F4.0°C 35.7°F2.1°C 87% 7.3 mph N11.7 kmh N 14.0 mph22.5 kmh 29.27 in991.2 mb 0.00 in0.0 mm 0.00 in0.0 mm 0.00 in0.0 mm
12:30 PM 39.0°F3.9°C 35.2°F1.8°C 86% 9.3 mph N15.0 kmh N 14.0 mph22.5 kmh 29.27 in991.2 mb 0.00 in0.0 mm 0.00 in0.0 mm 0.00 in0.0 mm
12:45 PM 39.0°F3.9°C 35.2°F1.8°C 86% 7.8 mph N12.6 kmh N 13.6 mph21.9 kmh 29.27 in991.2 mb 0.00 in0.0 mm 0.00 in0.0 mm 0.00 in0.0 mm
01:00 PM 39.0°F3.9°C 35.2°F1.8°C 86% 7.2 mph N11.6 kmh N 10.4 mph16.7 kmh 29.27 in991.2 mb 0.00 in0.0 mm 0.00 in0.0 mm 0.00 in0.0 mm
01:15 PM 38.8°F3.8°C 34.7°F1.5°C 85% 6.7 mph N10.8 kmh N 11.5 mph18.5 kmh 29.27 in991.2 mb 0.00 in0.0 mm 0.00 in0.0 mm 0.00 in0.0 mm
01:44 PM 39.0°F3.9°C 34.9°F1.6°C 85% 7.3 mph N11.7 kmh N 8.9 mph14.3 kmh 29.27 in991.2 mb 0.00 in0.0 mm 0.00 in0.0 mm 0.00 in0.0 mm
01:45 PM 39.0°F3.9°C 34.9°F1.6°C 85% 8.3 mph N13.4 kmh N 12.9 mph20.8 kmh 29.27 in991.2 mb 0.00 in0.0 mm 0.00 in0.0 mm 0.00 in0.0 mm
02:00 PM 38.7°F3.7°C 34.2°F1.2°C 84% 9.5 mph N15.3 kmh N 15.7 mph25.3 kmh 29.27 in991.2 mb 0.00 in0.0 mm 0.00 in0.0 mm 0.00 in0.0 mm
02:15 PM 38.8°F3.8°C 34.7°F1.5°C 85% 4.7 mph N7.6 kmh N 11.8 mph19.0 kmh 29.30 in992.2 mb 0.00 in0.0 mm 0.00 in0.0 mm 0.00 in0.0 mm
02:30 PM 38.8°F3.8°C 34.7°F1.5°C 85% 7.9 mph N12.7 kmh N 14.0 mph22.5 kmh 29.30 in992.2 mb 0.00 in0.0 mm 0.00 in0.0 mm 0.00 in0.0 mm
02:45 PM 39.2°F4.0°C 35.1°F1.7°C 85% 6.3 mph N10.1 kmh N 14.0 mph22.5 kmh 29.33 in993.2 mb 0.00 in0.0 mm 0.00 in0.0 mm 0.00 in0.0 mm
03:00 PM 39.0°F3.9°C 34.6°F1.4°C 84% 6.8 mph N10.9 kmh N 11.8 mph19.0 kmh 29.33 in993.2 mb 0.00 in0.0 mm 0.00 in0.0 mm 0.00 in0.0 mm
03:15 PM 38.8°F3.8°C 34.1°F1.2°C 83% 4.4 mph N7.1 kmh N 12.5 mph20.1 kmh 29.33 in993.2 mb 0.00 in0.0 mm 0.00 in0.0 mm 0.00 in0.0 mm
03:30 PM 38.7°F3.7°C 33.9°F1.1°C 83% 6.4 mph N10.3 kmh N 10.0 mph16.1 kmh 29.30 in992.2 mb 0.00 in0.0 mm 0.00 in0.0 mm 0.00 in0.0 mm
03:45 PM 38.5°F3.6°C 34.1°F1.2°C 84% 2.5 mph NNW4.0 kmh NNW 8.9 mph14.3 kmh 29.33 in993.2 mb 0.00 in0.0 mm 0.00 in0.0 mm 0.00 in0.0 mm
04:00 PM 38.1°F3.4°C 33.7°F0.9°C 84% 5.0 mph N8.0 kmh N 12.5 mph20.1 kmh 29.36 in994.2 mb 0.00 in0.0 mm 0.00 in0.0 mm 0.00 in0.0 mm
04:15 PM 37.8°F3.2°C 33.7°F0.9°C 85% 6.7 mph NNW10.8 kmh NNW 11.8 mph19.0 kmh 29.36 in994.2 mb 0.00 in0.0 mm 0.00 in0.0 mm 0.00 in0.0 mm
04:30 PM 37.6°F3.1°C 33.8°F1.0°C 86% 5.7 mph N9.2 kmh N 10.0 mph16.1 kmh 29.36 in994.2 mb 0.00 in0.0 mm 0.00 in0.0 mm 0.00 in0.0 mm
04:45 PM 37.6°F3.1°C 33.8°F1.0°C 86% 4.1 mph NNW6.6 kmh NNW 10.4 mph16.7 kmh 29.36 in994.2 mb 0.00 in0.0 mm 0.00 in0.0 mm 0.00 in0.0 mm
05:00 PM 37.4°F3.0°C 33.6°F0.9°C 86% 6.7 mph N10.8 kmh N 11.8 mph19.0 kmh 29.39 in995.3 mb 0.00 in0.0 mm 0.00 in0.0 mm 0.00 in0.0 mm
05:15 PM 37.0°F2.8°C 33.2°F0.7°C 86% 5.3 mph N8.5 kmh N 10.4 mph16.7 kmh 29.39 in995.3 mb 0.00 in0.0 mm 0.00 in0.0 mm 0.00 in0.0 mm
05:30 PM 36.9°F2.7°C 33.4°F0.8°C 87% 4.7 mph N7.6 kmh N 7.9 mph12.7 kmh 29.39 in995.3 mb 0.00 in0.0 mm 0.00 in0.0 mm 0.00 in0.0 mm
05:45 PM 36.7°F2.6°C 33.2°F0.7°C 87% 7.0 mph N11.3 kmh N 10.4 mph16.7 kmh 29.39 in995.3 mb 0.00 in0.0 mm 0.00 in0.0 mm 0.00 in0.0 mm
06:00 PM 36.7°F2.6°C 33.5°F0.8°C 88% 7.1 mph N11.4 kmh N 11.1 mph17.9 kmh 29.41 in995.9 mb 0.00 in0.0 mm 0.00 in0.0 mm 0.00 in0.0 mm
06:15 PM 36.3°F2.4°C 33.1°F0.6°C 88% 6.6 mph N10.6 kmh N 9.3 mph15.0 kmh 29.41 in995.9 mb 0.00 in0.0 mm 0.00 in0.0 mm 0.00 in0.0 mm
06:30 PM 36.1°F2.3°C 32.9°F0.5°C 88% 8.6 mph N13.8 kmh N 12.2 mph19.6 kmh 29.45 in997.3 mb 0.00 in0.0 mm 0.00 in0.0 mm 0.00 in0.0 mm
06:45 PM 36.1°F2.3°C 32.9°F0.5°C 88% 6.9 mph N11.1 kmh N 10.4 mph16.7 kmh 29.45 in997.3 mb 0.00 in0.0 mm 0.00 in0.0 mm 0.00 in0.0 mm
07:00 PM 36.0°F2.2°C 32.8°F0.4°C 88% 7.5 mph N12.1 kmh N 10.4 mph16.7 kmh 29.45 in997.3 mb 0.00 in0.0 mm 0.00 in0.0 mm 0.00 in0.0 mm
07:15 PM 35.8°F2.1°C 32.6°F0.3°C 88% 6.5 mph N10.5 kmh N 9.7 mph15.6 kmh 29.45 in997.3 mb 0.00 in0.0 mm 0.00 in0.0 mm 0.00 in0.0 mm
07:30 PM 35.6°F2.0°C 32.4°F0.2°C 88% 6.0 mph N9.7 kmh N 8.9 mph14.3 kmh 29.45 in997.3 mb 0.00 in0.0 mm 0.00 in0.0 mm 0.00 in0.0 mm
07:45 PM 35.6°F2.0°C 32.1°F0.1°C 87% 4.9 mph N7.9 kmh N 6.8 mph10.9 kmh 29.45 in997.3 mb 0.00 in0.0 mm 0.00 in0.0 mm 0.00 in0.0 mm
08:00 PM 35.4°F1.9°C 31.9°F-0.1°C 87% 5.6 mph N9.0 kmh N 8.9 mph14.3 kmh 29.47 in998.0 mb 0.00 in0.0 mm 0.00 in0.0 mm 0.00 in0.0 mm
08:15 PM 35.2°F1.8°C 31.8°F-0.1°C 87% 5.6 mph N9.0 kmh N 9.7 mph15.6 kmh 29.47 in998.0 mb 0.00 in0.0 mm 0.00 in0.0 mm 0.00 in0.0 mm
08:30 PM 35.1°F1.7°C 31.6°F-0.2°C 87% 7.6 mph N12.2 kmh N 9.3 mph15.0 kmh 29.50 in999.0 mb 0.00 in0.0 mm 0.00 in0.0 mm 0.00 in0.0 mm
08:45 PM 35.1°F1.7°C 31.6°F-0.2°C 87% 5.1 mph N8.2 kmh N 8.6 mph13.8 kmh 29.50 in999.0 mb 0.00 in0.0 mm 0.00 in0.0 mm 0.00 in0.0 mm
09:00 PM 34.9°F1.6°C 31.4°F-0.3°C 87% 3.6 mph N5.8 kmh N 8.6 mph13.8 kmh 29.50 in999.0 mb 0.00 in0.0 mm 0.00 in0.0 mm 0.00 in0.0 mm
09:15 PM 34.7°F1.5°C 31.2°F-0.4°C 87% 2.3 mph N3.7 kmh N 7.9 mph12.7 kmh 29.50 in999.0 mb 0.00 in0.0 mm 0.00 in0.0 mm 0.00 in0.0 mm
09:30 PM 34.5°F1.4°C 31.0°F-0.6°C 87% 1.9 mph N3.1 kmh N 6.8 mph10.9 kmh 29.50 in999.0 mb 0.00 in0.0 mm 0.00 in0.0 mm 0.00 in0.0 mm
09:45 PM 34.5°F1.4°C 31.0°F-0.6°C 87% 2.1 mph NNW3.4 kmh NNW 6.1 mph9.8 kmh 29.50 in999.0 mb 0.00 in0.0 mm 0.00 in0.0 mm 0.00 in0.0 mm
10:00 PM 34.3°F1.3°C 30.9°F-0.6°C 87% 3.3 mph NNW5.3 kmh NNW 6.4 mph10.3 kmh 29.50 in999.0 mb 0.00 in0.0 mm 0.00 in0.0 mm 0.00 in0.0 mm
10:15 PM 34.3°F1.3°C 30.9°F-0.6°C 87% 3.3 mph N5.3 kmh N 7.5 mph12.1 kmh 29.53 in1000.0 mb 0.00 in0.0 mm 0.00 in0.0 mm 0.00 in0.0 mm
10:30 PM 34.3°F1.3°C 30.9°F-0.6°C 87% 5.9 mph N9.5 kmh N 9.3 mph15.0 kmh 29.56 in1001.0 mb 0.00 in0.0 mm 0.00 in0.0 mm 0.00 in0.0 mm
10:45 PM 34.2°F1.2°C 30.7°F-0.7°C 87% 3.5 mph N5.6 kmh N 7.9 mph12.7 kmh 29.56 in1001.0 mb 0.00 in0.0 mm 0.00 in0.0 mm 0.00 in0.0 mm
11:00 PM 34.2°F1.2°C 30.7°F-0.7°C 87% 4.1 mph NNW6.6 kmh NNW 6.4 mph10.3 kmh 29.56 in1001.0 mb 0.00 in0.0 mm 0.00 in0.0 mm 0.00 in0.0 mm
11:15 PM 34.2°F1.2°C 30.7°F-0.7°C 87% 3.5 mph N5.6 kmh N 7.9 mph12.7 kmh 29.59 in1002.0 mb 0.00 in0.0 mm 0.00 in0.0 mm 0.00 in0.0 mm
11:30 PM 34.2°F1.2°C 30.7°F-0.7°C 87% 5.1 mph N8.2 kmh N 9.7 mph15.6 kmh 29.53 in1000.0 mb 0.00 in0.0 mm 0.00 in0.0 mm 0.00 in0.0 mm
11:45 PM 34.2°F1.2°C 30.7°F-0.7°C 87% 1.2 mph N1.9 kmh N 6.4 mph10.3 kmh 29.56 in1001.0 mb 0.00 in0.0 mm 0.00 in0.0 mm 0.00 in0.0 mm